Time;durP1;ratioP1;P1;durP2;ratioP2;P2;SDS_P1;SDS_P2;PMS_P1;PMS_P2;Temp;Humidity;BMP_temperature;BMP_pressure;BME280_temperature;BME280_humidity;BME280_pressure;Samples;Min_cycle;Max_cycle;Signal;HPM_P1;HPM_P2
2022/07/12 00:02:34;;;;;;;4.47;2.53;;;18.80;94.00;;;;;;6861367;28;20511;-80
2022/07/12 00:05:57;;;;;;;4.00;2.45;;;18.80;94.00;;;;;;6861854;28;21089;-78
2022/07/12 00:09:19;;;;;;;4.03;2.35;;;18.60;94.10;;;;;;6862660;28;20435;-78
2022/07/12 00:12:41;;;;;;;5.60;2.60;;;18.50;94.50;;;;;;6861514;28;20503;-80
2022/07/12 00:16:04;;;;;;;6.55;2.75;;;18.50;94.70;;;;;;6860195;28;20427;-79
2022/07/12 00:19:27;;;;;;;5.03;2.60;;;18.50;94.50;;;;;;6862217;28;20484;-79
2022/07/12 00:22:49;;;;;;;4.07;2.45;;;18.50;94.30;;;;;;6860969;28;20447;-78
2022/07/12 00:26:11;;;;;;;4.70;2.50;;;18.30;94.70;;;;;;6860970;28;20561;-79
2022/07/12 00:29:33;;;;;;;3.97;2.60;;;18.20;94.90;;;;;;6860653;28;20439;-78
2022/07/12 00:32:55;;;;;;;5.10;2.92;;;18.10;94.80;;;;;;6861775;28;20435;-78
2022/07/12 00:36:19;;;;;;;4.95;2.85;;;18.00;95.60;;;;;;6862244;28;20470;-76
2022/07/12 00:39:41;;;;;;;21.90;12.45;;;18.00;95.50;;;;;;6862722;28;20428;-79
2022/07/12 00:43:04;;;;;;;7.03;4.33;;;18.10;95.50;;;;;;6860669;28;20492;-78
2022/07/12 00:46:26;;;;;;;4.47;2.75;;;18.20;95.30;;;;;;6860659;28;20940;-79
2022/07/12 00:49:48;;;;;;;4.00;2.58;;;18.20;95.30;;;;;;6862237;28;20471;-79
2022/07/12 00:53:11;;;;;;;4.73;2.90;;;18.10;95.10;;;;;;6861911;28;20478;-78
2022/07/12 00:56:33;;;;;;;5.90;3.00;;;17.90;95.60;;;;;;6859784;28;20447;-78
2022/07/12 00:59:55;;;;;;;5.18;2.90;;;17.70;95.90;;;;;;6862449;28;20471;-78
2022/07/12 01:03:18;;;;;;;5.22;2.72;;;17.70;96.20;;;;;;6862597;28;20947;-78
2022/07/12 01:06:40;;;;;;;4.30;2.70;;;17.80;96.10;;;;;;6861133;28;20443;-76
2022/07/12 01:10:05;;;;;;;4.00;2.85;;;17.70;96.20;;;;;;6861285;28;20937;-77
2022/07/12 01:13:27;;;;;;;4.55;2.83;;;17.60;96.50;;;;;;6860995;28;20446;-77
2022/07/12 01:16:50;;;;;;;4.63;2.78;;;17.60;96.50;;;;;;6866223;28;20798;-78
2022/07/12 01:20:12;;;;;;;4.85;2.67;;;17.60;96.30;;;;;;6873548;28;20483;-78
2022/07/12 01:23:38;;;;;;;4.60;2.65;;;17.60;96.30;;;;;;6860323;28;20798;-78
2022/07/12 01:27:01;;;;;;;4.03;2.33;;;17.60;96.30;;;;;;6860577;28;20475;-78
2022/07/12 01:30:23;;;;;;;3.92;2.40;;;17.60;96.60;;;;;;6874703;28;20920;-80
2022/07/12 01:33:45;;;;;;;4.30;2.60;;;17.70;96.60;;;;;;6875247;28;20458;-78
2022/07/12 01:37:08;;;;;;;4.13;2.70;;;17.60;96.30;;;;;;6859258;28;20488;-79
2022/07/12 01:40:32;;;;;;;4.05;2.60;;;17.60;96.30;;;;;;6860008;28;20538;-78
2022/07/12 01:43:54;;;;;;;4.50;2.70;;;17.50;96.50;;;;;;6861064;28;20949;-79
2022/07/12 01:47:16;;;;;;;4.45;2.67;;;17.50;96.40;;;;;;6859838;28;20505;-79
2022/07/12 01:50:38;;;;;;;4.35;2.75;;;17.50;96.50;;;;;;6860786;28;20490;-77
2022/07/12 01:54:00;;;;;;;4.38;2.67;;;17.30;96.50;;;;;;6858901;28;20483;-77
2022/07/12 01:57:24;;;;;;;5.03;2.60;;;17.30;96.70;;;;;;6859480;28;20480;-79
2022/07/12 02:00:52;;;;;;;4.70;2.90;;;17.30;97.00;;;;;;6858231;28;20447;-80
2022/07/12 02:04:17;;;;;;;5.05;2.80;;;17.30;97.50;;;;;;6859221;28;20524;-78
2022/07/12 02:07:40;;;;;;;4.82;2.80;;;17.30;98.00;;;;;;6858634;28;20468;-80
2022/07/12 02:11:02;;;;;;;4.00;2.60;;;17.50;97.20;;;;;;6859925;28;20554;-80
2022/07/12 02:14:26;;;;;;;4.95;2.70;;;17.50;96.80;;;;;;6859476;28;20448;-79
2022/07/12 02:17:48;;;;;;;5.22;2.80;;;17.50;97.10;;;;;;6859050;28;20443;-81
2022/07/12 02:21:10;;;;;;;4.40;2.83;;;17.50;97.20;;;;;;6860702;28;20929;-78
2022/07/12 02:24:32;;;;;;;4.80;2.58;;;17.40;97.50;;;;;;6858337;28;20439;-79
2022/07/12 02:27:54;;;;;;;3.97;2.78;;;17.30;97.20;;;;;;6860138;28;20474;-77
2022/07/12 02:31:18;;;;;;;4.45;2.70;;;17.20;97.10;;;;;;6859032;28;20432;-79
2022/07/12 02:34:40;;;;;;;4.30;2.80;;;17.10;97.00;;;;;;6858464;28;20508;-80
2022/07/12 02:38:02;;;;;;;4.55;2.55;;;16.80;97.20;;;;;;6859049;28;20924;-76
2022/07/12 02:41:24;;;;;;;5.07;2.92;;;16.60;97.40;;;;;;6859661;28;20480;-75
2022/07/12 02:44:46;;;;;;;4.70;2.90;;;16.50;98.00;;;;;;6858617;28;20435;-78
2022/07/12 02:48:12;;;;;;;5.57;3.47;;;16.50;98.00;;;;;;6855425;28;20507;-76
2022/07/12 02:51:34;;;;;;;5.43;3.63;;;16.40;99.00;;;;;;6859602;28;20537;-79
2022/07/12 02:54:56;;;;;;;4.72;2.97;;;16.40;99.90;;;;;;6869269;28;20490;-79
2022/07/12 02:58:18;;;;;;;5.53;3.00;;;16.50;99.70;;;;;;6858273;28;20494;-80
2022/07/12 03:01:40;;;;;;;4.93;2.88;;;16.60;99.00;;;;;;6858179;28;20440;-76
2022/07/12 03:05:05;;;;;;;5.07;2.90;;;16.80;98.50;;;;;;6858573;28;20439;-77
2022/07/12 03:08:27;;;;;;;4.40;2.83;;;16.70;98.50;;;;;;6859291;28;20536;-78
2022/07/12 03:11:49;;;;;;;4.55;2.90;;;16.60;98.60;;;;;;6859485;28;20435;-78
2022/07/12 03:15:11;;;;;;;5.53;3.13;;;16.50;98.60;;;;;;6856628;28;20814;-79
2022/07/12 03:18:33;;;;;;;5.22;2.95;;;16.60;98.80;;;;;;6859680;28;21004;-77
2022/07/12 03:21:56;;;;;;;4.53;3.25;;;16.60;99.00;;;;;;6859250;28;20439;-78
2022/07/12 03:25:19;;;;;;;5.22;3.03;;;16.60;99.00;;;;;;6878080;28;20471;-75
2022/07/12 03:28:41;;;;;;;5.15;2.90;;;16.70;98.80;;;;;;6858163;28;20834;-75
2022/07/12 03:32:04;;;;;;;4.53;2.90;;;16.70;98.70;;;;;;6861263;28;20935;-74
2022/07/12 03:35:26;;;;;;;5.30;3.00;;;16.60;98.10;;;;;;6857223;28;20943;-76
2022/07/12 03:38:49;;;;;;;5.20;2.90;;;16.40;98.30;;;;;;6858134;28;20458;-75
2022/07/12 03:42:12;;;;;;;5.30;2.90;;;16.30;98.40;;;;;;6859155;28;20930;-76
2022/07/12 03:45:34;;;;;;;4.20;2.95;;;16.20;99.30;;;;;;6862679;28;20478;-78
2022/07/12 03:48:56;;;;;;;4.70;2.90;;;16.30;99.20;;;;;;6861610;28;20502;-79
2022/07/12 03:52:18;;;;;;;4.78;2.85;;;16.40;98.70;;;;;;6861468;28;20472;-79
2022/07/12 03:55:42;;;;;;;5.10;3.30;;;16.40;98.50;;;;;;6861354;28;20511;-79
2022/07/12 03:59:04;;;;;;;5.93;3.57;;;16.20;98.90;;;;;;6862585;28;21125;-78
2022/07/12 04:02:27;;;;;;;4.95;3.35;;;16.20;99.40;;;;;;6862396;28;20497;-79
2022/07/12 04:05:49;;;;;;;4.43;3.17;;;16.30;99.70;;;;;;6851880;28;20449;-80
2022/07/12 04:09:11;;;;;;;5.28;3.53;;;16.40;99.60;;;;;;6836627;29;20485;-79
2022/07/12 04:12:34;;;;;;;5.57;3.78;;;16.40;99.70;;;;;;6836817;29;20773;-79
2022/07/12 04:15:56;;;;;;;5.37;3.70;;;16.30;99.80;;;;;;6836357;29;20496;-80
2022/07/12 04:19:18;;;;;;;4.65;3.28;;;16.20;99.90;;;;;;6852334;28;20446;-77
2022/07/12 04:22:41;;;;;;;5.70;3.60;;;16.30;99.90;;;;;;6862609;28;20918;-77
2022/07/12 04:26:02;;;;;;;5.93;3.53;;;16.40;99.90;;;;;;6862984;28;20503;-78
2022/07/12 04:29:26;;;;;;;5.53;3.75;;;16.50;99.60;;;;;;6862084;28;20468;-79
2022/07/12 04:32:48;;;;;;;7.53;4.30;;;16.60;99.80;;;;;;6862068;28;21034;-78
2022/07/12 04:36:10;;;;;;;5.53;3.70;;;16.60;99.50;;;;;;6861714;28;20475;-79
2022/07/12 04:39:32;;;;;;;5.85;4.00;;;16.70;99.40;;;;;;6862689;28;20487;-79
2022/07/12 04:42:54;;;;;;;5.82;3.80;;;16.60;99.70;;;;;;6862487;28;21068;-79
2022/07/12 04:46:17;;;;;;;7.00;3.70;;;16.70;99.70;;;;;;6862493;28;20540;-78
2022/07/12 04:49:39;;;;;;;5.90;4.05;;;16.80;99.60;;;;;;6838487;28;20472;-80
2022/07/12 04:53:02;;;;;;;4.50;3.50;;;16.90;99.30;;;;;;6862103;28;20492;-76
2022/07/12 04:56:24;;;;;;;4.95;3.47;;;16.80;99.20;;;;;;6862399;28;20530;-77
2022/07/12 04:59:46;;;;;;;6.38;3.90;;;16.70;99.30;;;;;;6861620;28;20467;-77
2022/07/12 05:03:09;;;;;;;5.57;3.70;;;16.70;99.60;;;;;;6837750;28;20897;-78
2022/07/12 05:06:31;;;;;;;6.22;3.63;;;16.80;99.40;;;;;;6856702;28;20952;-77
2022/07/12 05:09:53;;;;;;;5.53;3.90;;;16.80;99.40;;;;;;6888512;28;20519;-79
2022/07/12 05:13:15;;;;;;;6.78;3.80;;;16.70;99.50;;;;;;6888591;28;20465;-78
2022/07/12 05:16:37;;;;;;;6.13;4.05;;;16.60;99.60;;;;;;6888613;28;20469;-80
2022/07/12 05:20:01;;;;;;;7.43;4.20;;;16.50;99.70;;;;;;6844644;28;20465;-80
2022/07/12 05:23:23;;;;;;;6.22;3.80;;;16.50;99.90;;;;;;6852608;28;20873;-80
2022/07/12 05:26:45;;;;;;;5.72;4.00;;;16.50;99.90;;;;;;6861570;28;20443;-79
2022/07/12 05:30:08;;;;;;;6.37;4.20;;;16.60;99.90;;;;;;6861383;28;20435;-80
2022/07/12 05:33:30;;;;;;;7.40;4.20;;;16.60;99.90;;;;;;6848892;28;20477;-79
2022/07/12 05:36:53;;;;;;;6.70;4.50;;;16.70;99.90;;;;;;6861178;28;20504;-79
2022/07/12 05:40:15;;;;;;;7.40;4.57;;;16.80;99.90;;;;;;6853153;28;20794;-76
2022/07/12 05:43:38;;;;;;;5.93;4.40;;;16.80;99.90;;;;;;6860679;28;20476;-77
2022/07/12 05:47:00;;;;;;;5.93;3.83;;;16.80;99.90;;;;;;6859747;28;20946;-78
2022/07/12 05:50:22;;;;;;;6.97;4.13;;;16.90;99.90;;;;;;6860765;28;20432;-79
2022/07/12 05:53:44;;;;;;;6.82;4.70;;;17.00;99.90;;;;;;6860366;28;20493;-79
2022/07/12 05:57:06;;;;;;;7.50;4.70;;;17.00;99.90;;;;;;6887418;28;20962;-79
2022/07/12 06:00:28;;;;;;;8.20;5.45;;;17.00;99.90;;;;;;6887257;28;20470;-78
2022/07/12 06:03:50;;;;;;;7.20;4.93;;;17.10;99.90;;;;;;6867634;28;20483;-79
2022/07/12 06:07:12;;;;;;;7.25;4.90;;;17.10;99.90;;;;;;6860255;28;20439;-78
2022/07/12 06:10:36;;;;;;;7.68;5.40;;;17.10;99.90;;;;;;6857431;28;20452;-80
2022/07/12 06:13:58;;;;;;;7.22;5.00;;;17.20;99.90;;;;;;6859089;28;20482;-79
2022/07/12 06:17:22;;;;;;;8.02;5.22;;;17.20;99.90;;;;;;6886955;28;20498;-78
2022/07/12 06:20:44;;;;;;;8.43;5.27;;;17.20;99.90;;;;;;6886673;28;20445;-78
2022/07/12 06:24:07;;;;;;;8.23;5.10;;;17.30;99.90;;;;;;6854137;28;20445;-76
2022/07/12 06:27:30;;;;;;;7.38;4.90;;;17.50;99.90;;;;;;6851686;28;20499;-79
2022/07/12 06:30:52;;;;;;;7.38;5.30;;;17.50;99.90;;;;;;6859865;28;20431;-79
2022/07/12 06:34:14;;;;;;;8.27;5.07;;;17.60;99.90;;;;;;6859844;28;20444;-79
2022/07/12 06:37:36;;;;;;;7.22;4.93;;;17.70;99.90;;;;;;6859946;28;20480;-79
2022/07/12 06:40:58;;;;;;;7.35;4.97;;;17.80;99.90;;;;;;6858541;28;20481;-79
2022/07/12 06:44:21;;;;;;;7.38;4.80;;;17.90;99.90;;;;;;6859776;28;20504;-78
2022/07/12 06:47:43;;;;;;;6.80;4.65;;;17.90;99.90;;;;;;6859677;28;20448;-80
2022/07/12 06:51:05;;;;;;;6.20;4.25;;;18.00;99.90;;;;;;6886293;28;20438;-79
2022/07/12 06:54:27;;;;;;;6.43;4.40;;;18.10;99.90;;;;;;6886109;28;20944;-75
2022/07/12 06:57:50;;;;;;;6.40;4.30;;;18.00;99.70;;;;;;6879659;28;20806;-78
2022/07/12 07:01:13;;;;;;;6.33;4.50;;;17.80;99.90;;;;;;6859582;28;20902;-79
2022/07/12 07:04:35;;;;;;;6.07;4.20;;;17.90;99.90;;;;;;6850737;28;20456;-79
2022/07/12 07:07:57;;;;;;;6.97;3.78;;;18.10;99.90;;;;;;6829318;29;20494;-80
2022/07/12 07:11:19;;;;;;;7.10;3.90;;;18.40;99.50;;;;;;6836996;28;20451;-80
2022/07/12 07:14:41;;;;;;;5.72;3.53;;;18.50;99.10;;;;;;6882511;28;20936;-80
2022/07/12 07:18:05;;;;;;;7.30;3.60;;;18.60;98.80;;;;;;6882423;28;20788;-80
2022/07/12 07:21:27;;;;;;;4.60;3.10;;;18.70;98.60;;;;;;6883825;28;20493;-79
2022/07/12 07:24:49;;;;;;;5.40;3.00;;;18.80;98.60;;;;;;6886224;28;20438;-79
2022/07/12 07:28:11;;;;;;;5.35;3.10;;;18.90;98.30;;;;;;6860873;28;20467;-78
2022/07/12 07:31:34;;;;;;;4.93;3.10;;;19.10;98.30;;;;;;6860976;28;20492;-79
2022/07/12 07:34:58;;;;;;;5.20;2.90;;;19.20;98.20;;;;;;6860687;28;20458;-77
2022/07/12 07:38:20;;;;;;;11.98;7.22;;;19.20;98.00;;;;;;6860533;28;20496;-77
2022/07/12 07:41:42;;;;;;;5.68;3.20;;;19.20;97.80;;;;;;6859221;28;20475;-78
2022/07/12 07:45:07;;;;;;;5.95;3.47;;;19.30;96.70;;;;;;6858934;28;20498;-78
2022/07/12 07:48:29;;;;;;;5.40;2.83;;;19.40;95.90;;;;;;6858675;28;20490;-79
2022/07/12 07:51:53;;;;;;;6.00;3.03;;;19.50;95.80;;;;;;6859066;28;20479;-79
2022/07/12 07:55:15;;;;;;;5.07;2.60;;;19.60;96.10;;;;;;6860326;28;20499;-78
2022/07/12 07:58:37;;;;;;;4.07;2.30;;;19.60;95.70;;;;;;6860221;28;20447;-80
2022/07/12 08:01:59;;;;;;;4.68;1.90;;;19.70;95.50;;;;;;6860098;28;20862;-78
2022/07/12 08:05:21;;;;;;;4.10;2.10;;;19.80;95.30;;;;;;6859237;28;20455;-80
2022/07/12 08:08:45;;;;;;;4.70;2.20;;;19.90;94.90;;;;;;6860006;28;20491;-78
2022/07/12 08:12:08;;;;;;;5.05;2.25;;;20.00;94.60;;;;;;6860106;28;20483;-78
2022/07/12 08:15:30;;;;;;;3.47;1.80;;;20.10;93.90;;;;;;6887288;28;20876;-77
2022/07/12 08:18:53;;;;;;;3.05;1.40;;;20.20;93.80;;;;;;6886150;28;20434;-78
2022/07/12 08:22:15;;;;;;;3.60;1.30;;;20.10;92.60;;;;;;6859203;28;20527;-78
2022/07/12 08:25:38;;;;;;;3.33;1.30;;;20.30;92.10;;;;;;6885880;28;20912;-79
2022/07/12 08:29:00;;;;;;;3.05;1.60;;;20.40;92.10;;;;;;6885898;28;20473;-78
2022/07/12 08:32:22;;;;;;;3.58;1.48;;;20.40;92.50;;;;;;6885999;28;20564;-77
2022/07/12 08:35:44;;;;;;;4.30;1.50;;;20.50;91.90;;;;;;6857709;28;21053;-78
2022/07/12 08:39:06;;;;;;;2.80;1.20;;;20.50;92.00;;;;;;6859008;28;20436;-76
2022/07/12 08:42:31;;;;;;;2.72;1.30;;;20.60;91.40;;;;;;6853794;28;20534;-78
2022/07/12 08:45:53;;;;;;;3.50;1.10;;;20.70;91.70;;;;;;6855638;28;20985;-76
2022/07/12 08:49:15;;;;;;;2.72;1.25;;;20.80;91.30;;;;;;6858026;28;20487;-77
2022/07/12 08:52:44;;;;;;;2.97;1.20;;;20.80;91.10;;;;;;6856708;28;20448;-76
2022/07/12 08:56:08;;;;;;;3.38;1.33;;;20.80;91.00;;;;;;6848504;28;20465;-78
2022/07/12 08:59:32;;;;;;;2.42;1.10;;;20.90;90.90;;;;;;6885285;28;20450;-77
2022/07/12 09:02:56;;;;;;;3.50;1.20;;;20.90;90.10;;;;;;6863066;28;20806;-79
2022/07/12 09:06:18;;;;;;;4.00;1.07;;;21.00;89.90;;;;;;6884134;28;20442;-78
2022/07/12 09:09:40;;;;;;;3.45;1.70;;;21.10;89.20;;;;;;6870661;28;20444;-84
2022/07/12 09:13:02;;;;;;;4.00;2.85;;;21.20;88.30;;;;;;6858294;28;20490;-80
2022/07/12 09:16:27;;;;;;;5.10;4.35;;;21.20;88.60;;;;;;6857756;28;20510;-80
2022/07/12 09:19:56;;;;;;;6.10;3.58;;;21.30;89.20;;;;;;6857452;28;20483;-79
2022/07/12 09:23:19;;;;;;;5.00;3.05;;;21.50;87.90;;;;;;6856724;28;20869;-78
2022/07/12 09:26:41;;;;;;;5.13;3.60;;;21.70;87.80;;;;;;6856474;28;20443;-79
2022/07/12 09:30:04;;;;;;;5.70;3.63;;;21.70;88.10;;;;;;6855771;28;20996;-78
2022/07/12 09:37:07;;;;;;;5.65;3.50;;;21.80;89.80;;;;;;6883613;28;20544;-79
2022/07/12 09:40:29;;;;;;;3.70;2.10;;;21.80;88.50;;;;;;6859438;28;20446;-80
2022/07/12 09:43:53;;;;;;;4.40;2.07;;;21.80;88.30;;;;;;6881722;28;20691;-81
2022/07/12 09:47:16;;;;;;;4.55;2.00;;;21.80;88.20;;;;;;6883261;28;20450;-79
2022/07/12 09:50:41;;;;;;;3.58;1.70;;;21.90;86.50;;;;;;6883726;28;20537;-79
2022/07/12 09:54:05;;;;;;;3.55;1.50;;;22.00;87.60;;;;;;6867823;28;20480;-80
2022/07/12 09:57:28;;;;;;;4.95;1.50;;;22.10;87.30;;;;;;6855707;28;20507;-79
2022/07/12 10:00:53;;;;;;;3.50;1.70;;;22.20;86.00;;;;;;6856635;28;20439;-80
2022/07/12 10:04:21;;;;;;;2.78;1.30;;;22.30;84.50;;;;;;6855279;28;20471;-79
2022/07/12 10:07:46;;;;;;;3.83;1.33;;;22.40;83.40;;;;;;6856029;28;20476;-78
2022/07/12 10:11:08;;;;;;;3.22;1.30;;;22.40;84.80;;;;;;6856631;28;20448;-80
2022/07/12 10:14:31;;;;;;;3.13;1.58;;;22.40;84.80;;;;;;6856333;28;20754;-79
2022/07/12 10:17:55;;;;;;;2.78;1.40;;;22.50;83.10;;;;;;6854530;28;20855;-80
2022/07/12 10:21:22;;;;;;;3.45;1.60;;;22.50;82.00;;;;;;6855018;28;20450;-80
2022/07/12 10:24:54;;;;;;;3.83;1.90;;;22.50;82.00;;;;;;6854867;28;20471;-79
2022/07/12 10:28:16;;;;;;;4.10;1.83;;;22.60;81.10;;;;;;6855329;28;20428;-78
2022/07/12 10:31:40;;;;;;;3.10;1.80;;;22.60;79.70;;;;;;6858817;28;20478;-81
2022/07/12 10:35:05;;;;;;;3.47;1.80;;;22.50;79.00;;;;;;6864420;28;20840;-78
2022/07/12 10:38:27;;;;;;;4.07;1.65;;;22.60;79.70;;;;;;6883009;28;20434;-78
2022/07/12 10:42:15;;;;;;;2.65;1.58;;;22.70;80.20;;;;;;6882796;28;20846;-77
2022/07/12 10:45:40;;;;;;;2.70;1.40;;;22.80;81.40;;;;;;6881102;28;20431;-78
2022/07/12 10:49:25;;;;;;;3.00;1.30;;;22.80;81.50;;;;;;6882742;28;20434;-77
2022/07/12 10:52:47;;;;;;;3.58;1.40;;;22.90;79.40;;;;;;6871144;28;20526;-78
2022/07/12 10:56:13;;;;;;;2.65;1.13;;;23.00;81.00;;;;;;6857772;28;20965;-78
2022/07/12 10:59:38;;;;;;;3.10;1.10;;;23.00;81.10;;;;;;6891484;28;20442;-78
2022/07/12 11:03:04;;;;;;;2.08;1.02;;;23.00;79.30;;;;;;6864455;28;20499;-80
2022/07/12 11:06:27;;;;;;;3.10;1.30;;;23.10;79.80;;;;;;6868129;28;20922;-79
2022/07/12 11:09:53;;;;;;;2.63;1.15;;;23.10;80.80;;;;;;6891229;28;20430;-78
2022/07/12 11:13:22;;;;;;;2.72;1.02;;;23.00;78.30;;;;;;6867979;28;20577;-79
2022/07/12 11:16:48;;;;;;;2.85;0.93;;;23.00;77.70;;;;;;6863520;28;20455;-79
2022/07/12 11:20:13;;;;;;;2.47;1.10;;;23.00;78.10;;;;;;6864072;28;20486;-77
2022/07/12 11:23:35;;;;;;;2.80;0.98;;;23.10;79.10;;;;;;6864190;28;20443;-76
2022/07/12 11:26:59;;;;;;;2.92;1.00;;;23.10;79.80;;;;;;6863498;28;20475;-78
2022/07/12 11:30:21;;;;;;;3.17;0.90;;;23.20;78.20;;;;;;6862722;28;20494;-78
2022/07/12 11:33:47;;;;;;;2.70;0.80;;;23.20;75.40;;;;;;6864309;28;20440;-76
2022/07/12 11:37:09;;;;;;;2.53;0.95;;;23.20;76.40;;;;;;6864312;28;20455;-78
2022/07/12 11:40:32;;;;;;;3.08;0.95;;;23.30;77.40;;;;;;6864247;28;20435;-79
2022/07/12 11:43:54;;;;;;;3.17;1.00;;;23.40;74.90;;;;;;6860522;28;20543;-78
2022/07/12 11:47:19;;;;;;;2.85;0.93;;;23.40;75.20;;;;;;6863788;28;20499;-80
2022/07/12 11:50:44;;;;;;;2.37;1.00;;;23.30;74.00;;;;;;6863722;28;20431;-79
2022/07/12 11:54:06;;;;;;;3.58;1.00;;;23.30;74.10;;;;;;6863564;28;20522;-78
2022/07/12 11:57:29;;;;;;;2.63;0.90;;;23.40;74.10;;;;;;6862521;28;20921;-78
2022/07/12 12:00:53;;;;;;;2.20;0.83;;;23.60;75.60;;;;;;6862800;28;20451;-79
2022/07/12 12:04:15;;;;;;;3.15;0.90;;;23.60;74.40;;;;;;6863377;28;20471;-79
2022/07/12 12:07:39;;;;;;;2.50;0.80;;;23.80;74.70;;;;;;6862636;28;20443;-78
2022/07/12 12:11:02;;;;;;;3.70;1.00;;;23.80;73.90;;;;;;6858732;28;20588;-78
2022/07/12 12:14:24;;;;;;;3.45;0.90;;;23.90;74.40;;;;;;6859557;28;20455;-80
2022/07/12 12:17:53;;;;;;;4.78;1.20;;;24.00;72.40;;;;;;6859047;28;20454;-80
2022/07/12 12:21:15;;;;;;;4.25;1.10;;;24.10;71.30;;;;;;6859066;28;20447;-79
2022/07/12 12:24:38;;;;;;;3.58;1.10;;;24.00;72.40;;;;;;6859397;28;20478;-79
2022/07/12 12:28:03;;;;;;;5.05;1.30;;;24.20;73.00;;;;;;6858000;28;20479;-78
2022/07/12 12:31:25;;;;;;;3.65;1.23;;;24.40;73.50;;;;;;6858846;28;20436;-79
2022/07/12 12:35:09;;;;;;;5.70;1.30;;;24.40;73.40;;;;;;6859125;28;20486;-78
2022/07/12 12:38:31;;;;;;;2.92;1.00;;;24.60;72.50;;;;;;6857969;28;20439;-78
2022/07/12 12:41:55;;;;;;;3.28;0.90;;;24.70;71.20;;;;;;6858126;28;20470;-78
2022/07/12 12:45:25;;;;;;;2.85;0.80;;;24.70;69.00;;;;;;6883611;28;20442;-78
2022/07/12 12:48:48;;;;;;;2.83;0.80;;;24.90;68.70;;;;;;6858394;28;20476;-77
2022/07/12 12:52:10;;;;;;;3.42;0.88;;;24.90;69.30;;;;;;6857038;28;20483;-80
2022/07/12 12:55:32;;;;;;;2.55;0.63;;;25.10;70.20;;;;;;6858215;28;20440;-78
2022/07/12 12:58:56;;;;;;;2.75;0.80;;;25.30;68.40;;;;;;6858939;28;20447;-76
2022/07/12 13:02:18;;;;;;;2.70;0.80;;;25.30;66.00;;;;;;6857520;28;20440;-78
2022/07/12 13:05:41;;;;;;;2.20;0.60;;;25.40;65.10;;;;;;6857726;28;20630;-78
2022/07/12 13:09:03;;;;;;;2.03;0.60;;;25.60;65.50;;;;;;6857045;28;20444;-79
2022/07/12 13:12:25;;;;;;;2.42;0.70;;;25.70;64.40;;;;;;6857701;28;20443;-79
2022/07/12 13:15:49;;;;;;;2.58;0.70;;;25.70;65.90;;;;;;6857700;28;20480;-79
2022/07/12 13:19:11;;;;;;;3.15;0.70;;;25.90;66.00;;;;;;6883689;28;20469;-79
2022/07/12 13:22:33;;;;;;;2.78;0.50;;;26.10;65.50;;;;;;6870983;28;20936;-78
2022/07/12 13:25:55;;;;;;;3.03;0.80;;;26.20;64.00;;;;;;6857656;28;20482;-78
2022/07/12 13:29:17;;;;;;;3.00;0.70;;;26.40;64.10;;;;;;6884162;28;20530;-79
2022/07/12 13:32:41;;;;;;;2.92;0.70;;;26.60;62.60;;;;;;6884232;28;20476;-78
2022/07/12 13:36:04;;;;;;;2.30;0.70;;;26.60;63.40;;;;;;6867134;28;20490;-78
2022/07/12 13:43:17;;;;;;;2.07;0.50;;;26.90;64.10;;;;;;6808002;28;20813;-76
2022/07/12 13:46:40;;;;;;;3.70;0.80;;;27.30;61.90;;;;;;6882102;28;20438;-77
2022/07/12 13:50:04;;;;;;;2.22;0.65;;;27.40;62.50;;;;;;6877934;28;20473;-76
2022/07/12 13:53:27;;;;;;;2.42;0.68;;;27.60;61.80;;;;;;6884109;28;20504;-74
2022/07/12 13:56:49;;;;;;;2.13;0.70;;;27.60;62.20;;;;;;6883940;28;20489;-77
2022/07/12 14:00:14;;;;;;;2.28;0.63;;;27.70;62.30;;;;;;6884441;28;20469;-79
2022/07/12 14:03:36;;;;;;;1.65;0.50;;;28.00;62.30;;;;;;6879770;28;20434;-76
2022/07/12 14:07:00;;;;;;;2.55;0.75;;;28.20;62.00;;;;;;6883547;28;20434;-79
2022/07/12 14:10:22;;;;;;;2.42;0.60;;;28.30;61.40;;;;;;6858791;28;20444;-79
2022/07/12 14:13:44;;;;;;;1.35;0.55;;;28.30;59.70;;;;;;6859492;28;20440;-77
2022/07/12 14:17:06;;;;;;;1.73;0.50;;;28.40;61.50;;;;;;6851844;28;20520;-78
2022/07/12 14:20:30;;;;;;;1.95;0.68;;;28.70;61.80;;;;;;6854402;28;21181;-80
2022/07/12 14:23:53;;;;;;;1.80;0.50;;;28.80;59.40;;;;;;6854778;28;20438;-76
2022/07/12 14:27:15;;;;;;;2.17;0.60;;;28.90;59.10;;;;;;6854005;28;20518;-78
2022/07/12 14:30:37;;;;;;;1.75;0.60;;;29.10;59.70;;;;;;6854730;28;20444;-79
2022/07/12 14:33:59;;;;;;;1.42;0.50;;;29.10;59.00;;;;;;6858062;28;20478;-79
2022/07/12 14:37:23;;;;;;;2.20;0.60;;;29.30;58.70;;;;;;6859315;28;20473;-78
2022/07/12 14:40:47;;;;;;;1.07;0.40;;;29.10;56.90;;;;;;6880416;28;20465;-79
2022/07/12 14:44:09;;;;;;;1.92;0.52;;;29.00;56.70;;;;;;6849736;28;20439;-77
2022/07/12 14:47:31;;;;;;;1.30;0.55;;;29.10;57.30;;;;;;6855312;28;20440;-78
2022/07/12 14:50:53;;;;;;;1.45;0.47;;;29.20;55.90;;;;;;6882025;28;20974;-79
2022/07/12 14:54:15;;;;;;;1.42;0.50;;;29.30;57.20;;;;;;6870738;28;20468;-76
2022/07/12 14:57:39;;;;;;;2.33;0.47;;;29.40;55.20;;;;;;6863293;28;20517;-80
2022/07/12 15:01:01;;;;;;;1.38;0.50;;;29.60;54.60;;;;;;6864908;28;20445;-79
2022/07/12 15:04:23;;;;;;;1.52;0.57;;;29.60;55.50;;;;;;6863947;28;20444;-80
2022/07/12 15:07:45;;;;;;;2.72;0.65;;;29.60;55.50;;;;;;6857834;28;20446;-80
2022/07/12 15:11:07;;;;;;;2.42;0.80;;;29.50;56.00;;;;;;6856874;28;20440;-78
2022/07/12 15:14:31;;;;;;;1.60;0.60;;;29.40;55.40;;;;;;6855622;28;20546;-80
2022/07/12 15:17:53;;;;;;;1.95;0.43;;;29.60;56.40;;;;;;6854547;28;20802;-79
2022/07/12 15:21:15;;;;;;;1.92;0.50;;;29.50;55.50;;;;;;6853700;28;20455;-79
2022/07/12 15:24:37;;;;;;;1.23;0.30;;;29.70;56.40;;;;;;6856727;28;20447;-79
2022/07/12 15:28:00;;;;;;;1.60;0.52;;;29.80;54.80;;;;;;6857505;28;20473;-77
2022/07/12 15:31:24;;;;;;;1.88;0.50;;;29.80;54.60;;;;;;6868640;28;20449;-80
2022/07/12 15:34:46;;;;;;;1.73;0.47;;;29.80;55.30;;;;;;6870104;28;20781;-79
2022/07/12 15:38:08;;;;;;;1.88;0.40;;;29.90;54.60;;;;;;6846377;28;20564;-78
2022/07/12 15:41:30;;;;;;;1.52;0.40;;;30.10;54.80;;;;;;6829504;28;20472;-76
2022/07/12 15:44:52;;;;;;;2.10;0.60;;;30.10;53.90;;;;;;6857733;28;20806;-80
2022/07/12 15:48:16;;;;;;;1.83;0.50;;;30.10;54.40;;;;;;6855891;28;20917;-79
2022/07/12 15:55:18;;;;;;;1.10;0.40;;;30.30;53.20;;;;;;6864170;28;20436;-79
2022/07/12 15:58:42;;;;;;;3.05;0.45;;;30.40;52.60;;;;;;6855508;28;20486;-80
2022/07/12 16:02:04;;;;;;;2.17;0.50;;;30.50;52.20;;;;;;6860027;28;20499;-79
2022/07/12 16:05:27;;;;;;;3.20;0.40;;;30.60;52.40;;;;;;6860897;28;20482;-79
2022/07/12 16:08:49;;;;;;;1.08;0.50;;;30.70;51.10;;;;;;6857235;28;20447;-78
2022/07/12 16:12:11;;;;;;;0.90;0.50;;;31.30;51.40;;;;;;6855155;28;20487;-79
2022/07/12 16:15:34;;;;;;;1.50;0.50;;;31.50;50.40;;;;;;6861922;28;20918;-80
2022/07/12 16:18:56;;;;;;;1.20;0.50;;;31.00;50.80;;;;;;6860292;28;20467;-79
2022/07/12 16:22:19;;;;;;;1.10;0.40;;;30.80;53.30;;;;;;6858775;28;20440;-78
2022/07/12 16:25:42;;;;;;;1.92;0.45;;;30.70;52.20;;;;;;6858753;28;20554;-78
2022/07/12 16:29:04;;;;;;;2.47;0.50;;;30.70;52.80;;;;;;6860512;28;20464;-76
2022/07/12 16:32:26;;;;;;;1.67;0.30;;;30.50;52.60;;;;;;6858354;28;20436;-79
2022/07/12 16:35:48;;;;;;;1.52;0.45;;;30.80;51.50;;;;;;6863378;28;20486;-79
2022/07/12 16:39:12;;;;;;;2.67;0.60;;;30.80;52.10;;;;;;6858918;28;20490;-79
2022/07/12 16:42:34;;;;;;;3.30;0.70;;;30.90;51.80;;;;;;6858198;28;20495;-78
2022/07/12 16:45:56;;;;;;;3.67;0.52;;;31.10;50.90;;;;;;6871767;28;20469;-78
2022/07/12 16:49:18;;;;;;;1.70;0.40;;;31.00;51.70;;;;;;6871580;28;20447;-80
2022/07/12 16:52:40;;;;;;;1.53;0.53;;;31.30;51.30;;;;;;6858545;28;20487;-77
2022/07/12 16:56:05;;;;;;;1.70;0.50;;;31.40;51.70;;;;;;6864614;28;20442;-80
2022/07/12 16:59:27;;;;;;;2.28;0.50;;;31.30;51.20;;;;;;6860875;28;20450;-78
2022/07/12 17:02:49;;;;;;;2.03;0.47;;;31.10;50.30;;;;;;6861084;28;20475;-80
2022/07/12 17:06:11;;;;;;;1.60;0.45;;;31.20;50.40;;;;;;6863550;28;20455;-79
2022/07/12 17:09:33;;;;;;;1.40;0.32;;;31.20;51.00;;;;;;6858427;28;20932;-80
2022/07/12 17:12:57;;;;;;;1.15;0.40;;;31.40;50.80;;;;;;6861444;28;20892;-78
2022/07/12 17:16:19;;;;;;;1.63;0.50;;;31.50;51.80;;;;;;6861043;28;20460;-78
2022/07/12 17:19:41;;;;;;;1.47;0.50;;;31.50;50.70;;;;;;6865353;28;20466;-80
2022/07/12 17:23:04;;;;;;;1.60;0.47;;;31.70;50.30;;;;;;6872387;28;20531;-77
2022/07/12 17:26:27;;;;;;;1.80;0.50;;;31.80;50.20;;;;;;6858658;28;20452;-78
2022/07/12 17:29:50;;;;;;;0.83;0.40;;;31.80;49.70;;;;;;6855600;28;20444;-77
2022/07/12 17:33:12;;;;;;;2.08;0.50;;;31.80;49.80;;;;;;6876557;28;20436;-79
2022/07/12 17:36:34;;;;;;;2.25;0.40;;;31.90;49.60;;;;;;6889161;28;20434;-78
2022/07/12 17:39:56;;;;;;;1.48;0.40;;;32.00;50.60;;;;;;6880038;28;20451;-79
2022/07/12 17:43:19;;;;;;;1.10;0.30;;;31.90;49.00;;;;;;6859593;28;20463;-77
2022/07/12 17:46:42;;;;;;;1.48;0.75;;;31.80;49.60;;;;;;6857245;28;20460;-78